sensor_id;sensor_type;location;lat;lon;timestamp;P1;P2;P0
79418;PMS5003;68866;49.902;8.680;2023-04-10T00:03:21;14;14;
79418;PMS5003;68866;49.902;8.680;2023-04-10T00:13:45;18;18;
79418;PMS5003;68866;49.902;8.680;2023-04-10T00:24:07;32;22;
79418;PMS5003;68866;49.902;8.680;2023-04-10T00:34:29;28;28;
79418;PMS5003;68866;49.902;8.680;2023-04-10T00:39:41;14;14;
79418;PMS5003;68866;49.902;8.680;2023-04-10T00:50:03;28;28;
79418;PMS5003;68866;49.902;8.680;2023-04-10T01:00:26;24;16;
79418;PMS5003;68866;49.902;8.680;2023-04-10T01:10:49;22;22;
79418;PMS5003;68866;49.902;8.680;2023-04-10T01:21:17;20;20;
79418;PMS5003;68866;49.902;8.680;2023-04-10T01:31:45;18;18;
79418;PMS5003;68866;49.902;8.680;2023-04-10T01:42:11;16;16;
79418;PMS5003;68866;49.902;8.680;2023-04-10T01:52:35;20;20;
79418;PMS5003;68866;49.902;8.680;2023-04-10T02:02:58;20;20;
79418;PMS5003;68866;49.902;8.680;2023-04-10T02:13:20;40;32;
79418;PMS5003;68866;49.902;8.680;2023-04-10T02:23:45;24;24;
79418;PMS5003;68866;49.902;8.680;2023-04-10T02:34:08;16;16;
79418;PMS5003;68866;49.902;8.680;2023-04-10T02:44:31;20;20;
79418;PMS5003;68866;49.902;8.680;2023-04-10T02:49:43;26;18;
79418;PMS5003;68866;49.902;8.680;2023-04-10T03:00:05;20;20;
79418;PMS5003;68866;49.902;8.680;2023-04-10T03:10:28;22;22;
79418;PMS5003;68866;49.902;8.680;2023-04-10T03:20:50;28;16;
79418;PMS5003;68866;49.902;8.680;2023-04-10T03:31:12;44;30;
79418;PMS5003;68866;49.902;8.680;2023-04-10T03:41:33;22;22;
79418;PMS5003;68866;49.902;8.680;2023-04-10T03:51:56;22;22;
79418;PMS5003;68866;49.902;8.680;2023-04-10T04:02:18;32;20;
79418;PMS5003;68866;49.902;8.680;2023-04-10T04:12:41;20;20;
79418;PMS5003;68866;49.902;8.680;2023-04-10T04:23:03;18;18;
79418;PMS5003;68866;49.902;8.680;2023-04-10T04:33:25;26;26;
79418;PMS5003;68866;49.902;8.680;2023-04-10T04:43:47;32;24;
79418;PMS5003;68866;49.902;8.680;2023-04-10T04:54:10;38;38;
79418;PMS5003;68866;49.902;8.680;2023-04-10T05:04:32;46;40;
79418;PMS5003;68866;49.902;8.680;2023-04-10T05:09:44;38;38;
79418;PMS5003;68866;49.902;8.680;2023-04-10T05:20:06;32;32;
79418;PMS5003;68866;49.902;8.680;2023-04-10T05:30:29;40;30;
79418;PMS5003;68866;49.902;8.680;2023-04-10T05:40:51;28;28;
79418;PMS5003;68866;49.902;8.680;2023-04-10T05:51:14;38;32;
79418;PMS5003;68866;49.902;8.680;2023-04-10T06:01:36;28;22;
79418;PMS5003;68866;49.902;8.680;2023-04-10T06:11:59;36;36;
79418;PMS5003;68866;49.902;8.680;2023-04-10T06:22:21;30;30;
79418;PMS5003;68866;49.902;8.680;2023-04-10T06:32:44;48;42;
79418;PMS5003;68866;49.902;8.680;2023-04-10T06:43:06;38;38;
79418;PMS5003;68866;49.902;8.680;2023-04-10T06:53:27;40;40;
79418;PMS5003;68866;49.902;8.680;2023-04-10T07:03:50;60;50;
79418;PMS5003;68866;49.902;8.680;2023-04-10T07:14:12;46;46;
79418;PMS5003;68866;49.902;8.680;2023-04-10T07:24:34;34;34;
79418;PMS5003;68866;49.902;8.680;2023-04-10T07:29:46;36;36;
79418;PMS5003;68866;49.902;8.680;2023-04-10T07:40:09;32;32;
79418;PMS5003;68866;49.902;8.680;2023-04-10T07:50:31;26;26;
79418;PMS5003;68866;49.902;8.680;2023-04-10T08:00:53;34;34;
79418;PMS5003;68866;49.902;8.680;2023-04-10T08:11:22;22;22;
79418;PMS5003;68866;49.902;8.680;2023-04-10T08:21:46;30;22;
79418;PMS5003;68866;49.902;8.680;2023-04-10T08:32:09;36;26;
79418;PMS5003;68866;49.902;8.680;2023-04-10T08:42:31;20;20;
79418;PMS5003;68866;49.902;8.680;2023-04-10T08:52:53;42;42;
79418;PMS5003;68866;49.902;8.680;2023-04-10T09:03:20;34;34;
79418;PMS5003;68866;49.902;8.680;2023-04-10T09:13:43;30;30;
79418;PMS5003;68866;49.902;8.680;2023-04-10T09:24:05;22;22;
79418;PMS5003;68866;49.902;8.680;2023-04-10T09:34:27;20;20;
79418;PMS5003;68866;49.902;8.680;2023-04-10T09:44:49;16;16;
79418;PMS5003;68866;49.902;8.680;2023-04-10T09:50:07;26;26;
79418;PMS5003;68866;49.902;8.680;2023-04-10T10:00:29;30;18;
79418;PMS5003;68866;49.902;8.680;2023-04-10T10:10:53;18;18;
79418;PMS5003;68866;49.902;8.680;2023-04-10T10:21:18;14;14;
79418;PMS5003;68866;49.902;8.680;2023-04-10T10:31:41;12;12;
79418;PMS5003;68866;49.902;8.680;2023-04-10T10:42:05;16;16;
79418;PMS5003;68866;49.902;8.680;2023-04-10T10:52:42;12;12;
79418;PMS5003;68866;49.902;8.680;2023-04-10T11:24:24;10;10;
79418;PMS5003;68866;49.902;8.680;2023-04-10T11:34:46;12;12;
79418;PMS5003;68866;49.902;8.680;2023-04-10T11:40:03;16;16;
79418;PMS5003;68866;49.902;8.680;2023-04-10T11:50:27;18;8;
79418;PMS5003;68866;49.902;8.680;2023-04-10T12:00:56;12;12;
79418;PMS5003;68866;49.902;8.680;2023-04-10T12:11:20;14;14;
79418;PMS5003;68866;49.902;8.680;2023-04-10T12:21:44;12;12;
79418;PMS5003;68866;49.902;8.680;2023-04-10T12:32:09;20;20;
79418;PMS5003;68866;49.902;8.680;2023-04-10T12:42:32;10;10;
79418;PMS5003;68866;49.902;8.680;2023-04-10T12:53:09;10;10;
79418;PMS5003;68866;49.902;8.680;2023-04-10T13:03:36;10;10;
79418;PMS5003;68866;49.902;8.680;2023-04-10T13:14:08;12;12;
79418;PMS5003;68866;49.902;8.680;2023-04-10T13:24:32;12;12;
79418;PMS5003;68866;49.902;8.680;2023-04-10T13:29:44;10;10;
79418;PMS5003;68866;49.902;8.680;2023-04-10T13:40:08;14;14;
79418;PMS5003;68866;49.902;8.680;2023-04-10T13:50:33;10;10;
79418;PMS5003;68866;49.902;8.680;2023-04-10T14:01:04;8;8;
79418;PMS5003;68866;49.902;8.680;2023-04-10T14:11:33;14;14;
79418;PMS5003;68866;49.902;8.680;2023-04-10T14:21:56;12;12;
79418;PMS5003;68866;49.902;8.680;2023-04-10T14:32:19;8;8;
79418;PMS5003;68866;49.902;8.680;2023-04-10T14:42:52;8;8;
79418;PMS5003;68866;49.902;8.680;2023-04-10T14:53:15;30;18;
79418;PMS5003;68866;49.902;8.680;2023-04-10T15:03:37;6;6;
79418;PMS5003;68866;49.902;8.680;2023-04-10T15:14:01;8;8;
79418;PMS5003;68866;49.902;8.680;2023-04-10T15:24:25;12;12;
79418;PMS5003;68866;49.902;8.680;2023-04-10T15:29:41;12;12;
79418;PMS5003;68866;49.902;8.680;2023-04-10T15:40:07;14;14;
79418;PMS5003;68866;49.902;8.680;2023-04-10T15:50:31;8;8;
79418;PMS5003;68866;49.902;8.680;2023-04-10T16:00:55;18;18;
79418;PMS5003;68866;49.902;8.680;2023-04-10T16:11:17;14;14;
79418;PMS5003;68866;49.902;8.680;2023-04-10T16:21:41;10;10;
79418;PMS5003;68866;49.902;8.680;2023-04-10T16:32:07;8;8;
79418;PMS5003;68866;49.902;8.680;2023-04-10T16:42:29;26;16;
79418;PMS5003;68866;49.902;8.680;2023-04-10T16:52:52;12;12;
79418;PMS5003;68866;49.902;8.680;2023-04-10T17:03:15;14;14;
79418;PMS5003;68866;49.902;8.680;2023-04-10T17:13:40;16;16;
79418;PMS5003;68866;49.902;8.680;2023-04-10T17:24:06;14;14;
79418;PMS5003;68866;49.902;8.680;2023-04-10T17:34:29;30;20;
79418;PMS5003;68866;49.902;8.680;2023-04-10T17:39:41;16;16;
79418;PMS5003;68866;49.902;8.680;2023-04-10T17:50:04;18;18;
79418;PMS5003;68866;49.902;8.680;2023-04-10T18:00:27;14;14;
79418;PMS5003;68866;49.902;8.680;2023-04-10T18:10:50;8;8;
79418;PMS5003;68866;49.902;8.680;2023-04-10T18:21:15;14;14;
79418;PMS5003;68866;49.902;8.680;2023-04-10T18:31:37;16;16;
79418;PMS5003;68866;49.902;8.680;2023-04-10T18:42:00;18;18;
79418;PMS5003;68866;49.902;8.680;2023-04-10T18:52:22;20;20;
79418;PMS5003;68866;49.902;8.680;2023-04-10T19:02:48;14;14;
79418;PMS5003;68866;49.902;8.680;2023-04-10T19:13:12;12;12;
79418;PMS5003;68866;49.902;8.680;2023-04-10T19:23:35;14;14;
79418;PMS5003;68866;49.902;8.680;2023-04-10T19:33:57;12;12;
79418;PMS5003;68866;49.902;8.680;2023-04-10T19:44:20;18;18;
79418;PMS5003;68866;49.902;8.680;2023-04-10T19:54:42;14;14;
79418;PMS5003;68866;49.902;8.680;2023-04-10T19:59:54;14;14;
79418;PMS5003;68866;49.902;8.680;2023-04-10T20:10:16;14;14;
79418;PMS5003;68866;49.902;8.680;2023-04-10T20:20:37;14;14;
79418;PMS5003;68866;49.902;8.680;2023-04-10T20:30:59;10;10;
79418;PMS5003;68866;49.902;8.680;2023-04-10T20:41:21;20;20;
79418;PMS5003;68866;49.902;8.680;2023-04-10T20:51:43;14;14;
79418;PMS5003;68866;49.902;8.680;2023-04-10T21:02:09;16;16;
79418;PMS5003;68866;49.902;8.680;2023-04-10T21:12:31;26;14;
79418;PMS5003;68866;49.902;8.680;2023-04-10T21:22:54;18;18;
79418;PMS5003;68866;49.902;8.680;2023-04-10T21:33:17;22;22;
79418;PMS5003;68866;49.902;8.680;2023-04-10T21:43:39;20;20;
79418;PMS5003;68866;49.902;8.680;2023-04-10T21:54:01;34;20;
79418;PMS5003;68866;49.902;8.680;2023-04-10T22:04:24;18;18;
79418;PMS5003;68866;49.902;8.680;2023-04-10T22:14:47;20;14;
79418;PMS5003;68866;49.902;8.680;2023-04-10T22:19:59;10;10;
79418;PMS5003;68866;49.902;8.680;2023-04-10T22:30:24;20;20;
79418;PMS5003;68866;49.902;8.680;2023-04-10T22:40:47;14;14;
79418;PMS5003;68866;49.902;8.680;2023-04-10T22:51:10;24;24;
79418;PMS5003;68866;49.902;8.680;2023-04-10T23:01:35;14;14;
79418;PMS5003;68866;49.902;8.680;2023-04-10T23:11:59;18;18;
79418;PMS5003;68866;49.902;8.680;2023-04-10T23:22:22;14;14;
79418;PMS5003;68866;49.902;8.680;2023-04-10T23:32:44;14;14;
79418;PMS5003;68866;49.902;8.680;2023-04-10T23:43:07;26;26;
79418;PMS5003;68866;49.902;8.680;2023-04-10T23:53:30;18;18;
